Time;durP1;ratioP1;P1;durP2;ratioP2;P2;SDS_P1;SDS_P2;PMS_P1;PMS_P2;Temp;Humidity;BMP_temperature;BMP_pressure;BME280_temperature;BME280_humidity;BME280_pressure;Samples;Min_cycle;Max_cycle;Signal;HPM_P1;HPM_P2
2022/05/28 00:02:14;;;;;;;14.40;2.47;;;10.80;99.90;;;;;;5095614;28;20435;-91
2022/05/28 00:04:41;;;;;;;13.33;3.10;;;10.80;99.90;;;;;;5094992;28;20475;-92
2022/05/28 00:07:08;;;;;;;6.80;2.23;;;10.80;99.90;;;;;;5095797;28;20845;-93
2022/05/28 00:09:35;;;;;;;11.00;2.27;;;10.70;99.90;;;;;;5097692;28;20458;-91
2022/05/28 00:12:01;;;;;;;14.20;2.93;;;10.70;99.90;;;;;;5098955;28;20504;-92
2022/05/28 00:14:30;;;;;;;9.80;2.60;;;10.70;99.90;;;;;;5099955;28;20482;-91
2022/05/28 00:16:56;;;;;;;9.30;2.67;;;10.60;99.90;;;;;;5087765;28;20489;-92
2022/05/28 00:19:23;;;;;;;7.00;2.40;;;10.60;99.90;;;;;;5073571;28;20947;-91
2022/05/28 00:21:50;;;;;;;5.90;2.30;;;10.60;99.90;;;;;;5075463;28;20463;-92
2022/05/28 00:24:17;;;;;;;14.37;2.87;;;10.60;99.90;;;;;;5075739;28;20483;-93
2022/05/28 00:26:44;;;;;;;13.27;2.53;;;10.60;99.90;;;;;;5078445;28;20435;-92
2022/05/28 00:29:11;;;;;;;13.43;2.70;;;10.60;99.90;;;;;;5088357;28;20439;-91
2022/05/28 00:31:39;;;;;;;4.77;2.73;;;10.60;99.90;;;;;;5101018;28;20775;-91
2022/05/28 00:34:06;;;;;;;8.47;2.27;;;10.60;99.90;;;;;;5100885;28;20454;-92
2022/05/28 00:36:33;;;;;;;8.50;2.30;;;10.60;99.90;;;;;;5098762;28;20450;-91
2022/05/28 00:39:00;;;;;;;7.10;2.57;;;10.50;99.90;;;;;;5097499;28;20860;-92
2022/05/28 00:41:26;;;;;;;8.87;2.30;;;10.60;99.90;;;;;;5097576;28;20431;-92
2022/05/28 00:43:53;;;;;;;9.10;3.00;;;10.60;99.90;;;;;;5097907;28;20486;-92
2022/05/28 00:46:23;;;;;;;4.47;2.63;;;10.50;99.90;;;;;;5098094;28;20455;-92
2022/05/28 00:48:56;;;;;;;7.80;2.50;;;10.50;99.90;;;;;;5097971;28;20482;-91
2022/05/28 00:51:27;;;;;;;5.57;2.87;;;10.50;99.90;;;;;;5097951;28;21013;-92
2022/05/28 00:53:56;;;;;;;5.03;2.77;;;10.50;99.90;;;;;;5098079;28;20474;-92
2022/05/28 00:56:24;;;;;;;8.63;2.50;;;10.50;99.90;;;;;;5099168;28;20465;-91
2022/05/28 00:58:51;;;;;;;11.90;2.50;;;10.40;99.90;;;;;;5097618;28;20545;-92
2022/05/28 01:01:22;;;;;;;8.87;2.40;;;10.40;99.90;;;;;;5097470;28;20442;-92
2022/05/28 01:04:02;;;;;;;14.60;3.13;;;10.40;99.90;;;;;;5095820;28;20483;-92
2022/05/28 01:06:35;;;;;;;6.10;2.83;;;10.40;99.90;;;;;;5096114;28;20458;-91
2022/05/28 01:09:07;;;;;;;15.40;3.03;;;10.40;99.90;;;;;;5095832;28;20495;-92
2022/05/28 01:11:38;;;;;;;5.70;2.27;;;10.40;99.90;;;;;;5096117;28;20456;-93
2022/05/28 01:14:11;;;;;;;8.50;2.17;;;10.40;99.90;;;;;;5095434;28;20475;-91
2022/05/28 01:16:42;;;;;;;15.60;2.97;;;10.30;99.90;;;;;;5095822;28;20964;-92
2022/05/28 01:19:22;;;;;;;6.50;2.50;;;10.40;99.90;;;;;;5076732;28;20447;-91
2022/05/28 01:21:59;;;;;;;8.63;2.30;;;10.30;99.90;;;;;;5076007;28;20485;-92
2022/05/28 01:24:34;;;;;;;6.83;2.40;;;10.20;99.90;;;;;;5074842;28;20833;-92
2022/05/28 01:27:06;;;;;;;8.57;2.23;;;10.30;99.90;;;;;;5075320;28;20457;-94
2022/05/28 01:29:41;;;;;;;11.03;2.47;;;10.30;99.90;;;;;;5087730;28;20514;-92
2022/05/28 01:32:10;;;;;;;11.13;2.97;;;10.20;99.90;;;;;;5095354;28;20503;-91
2022/05/28 01:34:38;;;;;;;13.07;2.90;;;10.20;99.90;;;;;;5096268;28;20867;-91
2022/05/28 01:37:05;;;;;;;7.27;2.90;;;10.20;99.90;;;;;;5096981;28;20446;-92
2022/05/28 01:39:33;;;;;;;6.00;2.27;;;10.10;99.90;;;;;;5096280;28;20435;-92
2022/05/28 01:42:03;;;;;;;15.10;3.00;;;10.20;99.90;;;;;;5095922;28;20466;-92
2022/05/28 01:44:31;;;;;;;18.57;2.80;;;10.10;99.90;;;;;;5095910;28;20490;-92
2022/05/28 01:46:58;;;;;;;7.93;2.50;;;10.10;99.90;;;;;;5096693;28;20811;-91
2022/05/28 01:49:26;;;;;;;11.50;2.67;;;10.10;99.90;;;;;;5096252;28;20997;-92
2022/05/28 01:51:56;;;;;;;7.83;2.50;;;10.00;99.90;;;;;;5096907;28;20430;-91
2022/05/28 01:54:27;;;;;;;17.53;2.40;;;10.00;99.90;;;;;;5096042;28;20459;-92
2022/05/28 04:08:15;;;;;;;12.73;2.97;;;9.70;99.90;;;;;;6212945;22;1240953;-92
2022/05/28 04:10:42;;;;;;;7.60;2.40;;;9.80;99.90;;;;;;6255101;23;20426;-93
2022/05/28 04:13:09;;;;;;;6.67;2.70;;;10.00;99.90;;;;;;6250453;23;20452;-93
2022/05/28 04:15:35;;;;;;;9.33;2.20;;;9.90;99.90;;;;;;6224235;23;20431;-93
2022/05/28 04:18:02;;;;;;;8.83;2.40;;;9.90;99.90;;;;;;6224582;23;20471;-92
2022/05/28 04:20:29;;;;;;;7.93;3.00;;;9.90;99.90;;;;;;6224355;23;20423;-93
2022/05/28 04:28:49;;;;;;;9.90;2.90;;;10.10;99.90;;;;;;6255466;23;20785;-93
2022/05/28 04:31:16;;;;;;;8.10;2.90;;;10.10;99.90;;;;;;6254453;23;20768;-91
2022/05/28 04:33:42;;;;;;;18.27;3.47;;;10.20;99.90;;;;;;6254476;23;20435;-93
2022/05/28 04:36:09;;;;;;;6.77;2.90;;;10.20;99.90;;;;;;6254876;23;20921;-93
2022/05/28 04:38:36;;;;;;;10.53;3.10;;;10.30;99.90;;;;;;6254531;23;20423;-93
2022/05/28 04:41:03;;;;;;;6.90;2.67;;;10.30;99.90;;;;;;6254478;23;20415;-93
2022/05/28 04:43:29;;;;;;;18.03;3.33;;;10.40;99.90;;;;;;6254434;23;20662;-92
2022/05/28 04:45:58;;;;;;;17.70;2.80;;;10.40;99.90;;;;;;6263270;23;20415;-93
2022/05/28 04:48:24;;;;;;;12.67;2.90;;;10.50;99.90;;;;;;6259507;23;20415;-93
2022/05/28 04:50:51;;;;;;;7.50;2.83;;;10.50;99.90;;;;;;6256328;23;20418;-92
2022/05/28 04:53:18;;;;;;;5.63;2.50;;;10.60;99.90;;;;;;6254931;23;20439;-94
2022/05/28 04:55:45;;;;;;;6.80;2.67;;;10.70;99.90;;;;;;6264812;22;20403;-96
2022/05/28 04:58:13;;;;;;;13.47;3.17;;;10.80;99.90;;;;;;6282374;22;20392;-96
2022/05/28 05:00:41;;;;;;;12.93;2.83;;;10.80;99.90;;;;;;6282253;22;20392;-96
2022/05/28 05:03:09;;;;;;;15.70;3.57;;;10.90;99.90;;;;;;6282140;22;20412;-96
2022/05/28 05:05:36;;;;;;;10.90;3.10;;;10.90;99.90;;;;;;6277963;22;20396;-96
2022/05/28 05:08:03;;;;;;;18.00;2.77;;;11.00;99.90;;;;;;6275378;22;20408;-96
2022/05/28 05:10:30;;;;;;;16.97;3.77;;;11.00;99.90;;;;;;6274923;22;20396;-95
2022/05/28 05:12:57;;;;;;;6.60;2.70;;;11.10;99.90;;;;;;6250614;23;20811;-93
2022/05/28 05:15:23;;;;;;;5.40;2.80;;;11.20;99.90;;;;;;6247554;23;20474;-92
2022/05/28 05:17:50;;;;;;;9.43;3.13;;;11.30;99.90;;;;;;6247480;23;20416;-93
2022/05/28 05:20:19;;;;;;;8.73;2.70;;;11.30;99.90;;;;;;6247119;23;20416;-93
2022/05/28 05:22:45;;;;;;;10.60;3.37;;;11.40;99.90;;;;;;6246963;23;20440;-93
2022/05/28 05:25:14;;;;;;;13.20;3.07;;;11.60;99.90;;;;;;6246783;23;20416;-93
2022/05/28 05:27:43;;;;;;;8.67;2.83;;;11.60;99.90;;;;;;6247755;23;20432;-92
2022/05/28 05:30:10;;;;;;;8.77;3.70;;;11.80;99.90;;;;;;6247922;23;20396;-92
2022/05/28 05:32:37;;;;;;;13.77;3.17;;;11.80;99.90;;;;;;6247029;23;20436;-93
2022/05/28 05:35:05;;;;;;;7.33;3.10;;;11.80;99.90;;;;;;6246877;23;20451;-92
2022/05/28 05:37:33;;;;;;;16.73;3.70;;;11.80;99.90;;;;;;6247098;23;20420;-93
2022/05/28 05:39:59;;;;;;;15.03;3.20;;;11.90;99.90;;;;;;6247585;23;20412;-93
2022/05/28 05:42:26;;;;;;;9.63;2.60;;;11.90;99.90;;;;;;6246987;23;20436;-93
2022/05/28 05:44:53;;;;;;;18.43;3.70;;;12.00;99.90;;;;;;6246734;23;20412;-93
2022/05/28 05:47:20;;;;;;;7.63;3.10;;;12.10;99.90;;;;;;6247286;23;20416;-93
2022/05/28 05:49:47;;;;;;;13.67;3.20;;;12.10;99.90;;;;;;6246981;23;20408;-93
2022/05/28 05:52:14;;;;;;;9.90;2.53;;;12.40;99.90;;;;;;6246602;23;20443;-92
2022/05/28 05:54:42;;;;;;;11.53;3.10;;;12.30;99.90;;;;;;6246720;23;20436;-93
2022/05/28 05:57:08;;;;;;;9.93;2.97;;;12.50;99.90;;;;;;6247056;23;20420;-93
2022/05/28 05:59:35;;;;;;;9.27;3.03;;;12.50;99.90;;;;;;6246634;23;20416;-93
2022/05/28 06:02:02;;;;;;;7.93;2.73;;;12.50;99.90;;;;;;6247148;23;20864;-92
2022/05/28 06:04:29;;;;;;;12.87;3.63;;;12.40;99.90;;;;;;6246294;23;20443;-93
2022/05/28 06:06:55;;;;;;;14.03;3.00;;;12.70;99.90;;;;;;6247095;23;20886;-93
2022/05/28 06:09:22;;;;;;;8.80;3.37;;;12.70;99.90;;;;;;6246579;23;20423;-93
2022/05/28 06:11:51;;;;;;;11.07;2.93;;;12.90;99.90;;;;;;6246890;23;20487;-93
2022/05/28 06:14:18;;;;;;;13.70;3.33;;;13.00;99.90;;;;;;6246554;23;20478;-92
2022/05/28 06:16:45;;;;;;;12.10;3.30;;;13.20;99.90;;;;;;6245669;23;20731;-94
2022/05/28 06:19:11;;;;;;;12.97;3.20;;;13.20;99.90;;;;;;6246815;23;20416;-93
2022/05/28 06:21:38;;;;;;;9.37;2.93;;;13.20;99.90;;;;;;6248778;23;20455;-92
2022/05/28 06:24:06;;;;;;;7.83;2.63;;;13.30;99.90;;;;;;6246629;23;20412;-94
2022/05/28 06:26:32;;;;;;;13.07;3.63;;;13.40;99.90;;;;;;6246159;23;20496;-93
2022/05/28 06:29:01;;;;;;;18.10;3.35;;;13.30;99.90;;;;;;6246027;23;20798;-91
2022/05/28 06:31:27;;;;;;;7.93;3.40;;;13.40;99.90;;;;;;6248182;23;20678;-92
2022/05/28 06:33:55;;;;;;;9.23;3.30;;;13.40;99.90;;;;;;6248459;23;20440;-92
2022/05/28 06:36:21;;;;;;;17.23;3.33;;;13.40;99.90;;;;;;6248529;23;20426;-92
2022/05/28 06:38:48;;;;;;;7.57;3.10;;;13.60;99.90;;;;;;6248039;23;20907;-92
2022/05/28 06:41:16;;;;;;;10.80;3.40;;;13.50;99.90;;;;;;6249559;23;20923;-92
2022/05/28 06:43:43;;;;;;;14.80;3.23;;;13.40;99.90;;;;;;6247907;23;20427;-92
2022/05/28 06:46:11;;;;;;;8.50;3.00;;;13.40;99.90;;;;;;6248285;23;20424;-92
2022/05/28 06:48:38;;;;;;;11.47;3.83;;;13.60;99.90;;;;;;6248004;23;20416;-92
2022/05/28 06:51:06;;;;;;;11.60;3.40;;;14.10;99.90;;;;;;6247805;23;20910;-92
2022/05/28 06:53:36;;;;;;;7.43;3.10;;;14.10;99.90;;;;;;6246940;23;20416;-92
2022/05/28 06:56:03;;;;;;;8.83;2.77;;;14.20;99.90;;;;;;6248382;23;20416;-91
2022/05/28 06:58:30;;;;;;;12.67;2.73;;;14.50;99.90;;;;;;6247858;23;20422;-92
2022/05/28 07:00:57;;;;;;;8.43;2.70;;;14.60;99.90;;;;;;6247602;23;20749;-91
2022/05/28 07:03:27;;;;;;;8.13;2.50;;;14.80;99.90;;;;;;6247586;23;20420;-92
2022/05/28 07:05:54;;;;;;;8.40;2.67;;;15.10;99.90;;;;;;6247539;23;20409;-92
2022/05/28 07:08:21;;;;;;;5.80;3.20;;;15.10;99.90;;;;;;6247377;23;20416;-92
2022/05/28 07:10:50;;;;;;;8.43;2.57;;;15.50;99.90;;;;;;6247552;23;20422;-92
2022/05/28 07:13:19;;;;;;;8.63;2.73;;;16.00;99.90;;;;;;6247287;23;20443;-91
2022/05/28 07:15:46;;;;;;;5.07;2.37;;;15.90;99.90;;;;;;6248040;23;20451;-91
2022/05/28 07:18:13;;;;;;;5.93;2.50;;;15.70;99.90;;;;;;6248290;23;20829;-92
2022/05/28 07:20:42;;;;;;;6.37;2.50;;;15.30;99.90;;;;;;6247111;23;20906;-92
2022/05/28 07:23:11;;;;;;;6.63;2.87;;;15.10;99.90;;;;;;6247156;23;20440;-92
2022/05/28 07:25:39;;;;;;;7.13;2.50;;;15.20;99.90;;;;;;6247633;23;20420;-91
2022/05/28 07:30:50;;;;;;;5.00;2.00;;;15.60;99.90;;;;;;6245133;23;20410;-92
2022/05/28 07:33:19;;;;;;;5.73;2.43;;;15.90;99.90;;;;;;6247119;23;20432;-91
2022/05/28 07:35:48;;;;;;;3.50;2.27;;;16.20;99.90;;;;;;6246995;23;20443;-91
2022/05/28 07:38:15;;;;;;;3.97;2.03;;;16.40;99.90;;;;;;6247331;23;20416;-92
2022/05/28 07:40:42;;;;;;;3.67;1.93;;;16.70;99.90;;;;;;6247138;23;20398;-91
2022/05/28 07:43:10;;;;;;;2.73;2.40;;;16.70;99.90;;;;;;6247136;23;20439;-91
2022/05/28 07:45:38;;;;;;;7.43;2.33;;;16.60;99.90;;;;;;6247232;23;20391;-92
2022/05/28 07:48:06;;;;;;;5.43;2.20;;;16.40;99.90;;;;;;6247859;23;20802;-91
2022/05/28 07:50:33;;;;;;;4.47;2.40;;;;;;;;;;6247654;23;20427;-92
2022/05/28 07:53:01;;;;;;;5.27;2.40;;;16.50;99.90;;;;;;6246538;23;20442;-90
2022/05/28 07:55:29;;;;;;;3.50;2.77;;;16.50;99.90;;;;;;6246828;23;20415;-91
2022/05/28 07:57:56;;;;;;;3.10;2.40;;;16.40;99.90;;;;;;6247121;23;20415;-91
2022/05/28 08:00:23;;;;;;;3.00;2.17;;;16.60;99.90;;;;;;6260826;23;20421;-92
2022/05/28 08:02:50;;;;;;;5.50;2.50;;;16.70;99.90;;;;;;6247027;23;20960;-91
2022/05/28 08:05:17;;;;;;;2.60;2.40;;;16.50;99.90;;;;;;6246423;23;20412;-91
2022/05/28 08:07:46;;;;;;;5.17;2.20;;;16.80;99.90;;;;;;6247089;23;20416;-94
2022/05/28 08:10:14;;;;;;;10.03;2.73;;;17.10;99.90;;;;;;6247064;23;20422;-92
2022/05/28 08:12:41;;;;;;;3.00;2.33;;;17.50;99.90;;;;;;6246838;23;20436;-92
2022/05/28 08:15:11;;;;;;;10.40;2.70;;;17.70;99.90;;;;;;6246619;23;20423;-92
2022/05/28 08:17:38;;;;;;;5.67;2.57;;;;;;;;;;6246685;23;20416;-91
2022/05/28 08:20:06;;;;;;;12.23;3.07;;;17.70;99.90;;;;;;6246778;23;20417;-91
2022/05/28 08:25:19;;;;;;;3.30;1.97;;;18.20;99.90;;;;;;6246820;23;20350;-92
2022/05/28 08:27:46;;;;;;;6.10;2.40;;;18.40;99.90;;;;;;6247516;23;20405;-91
2022/05/28 08:30:13;;;;;;;5.53;2.47;;;18.40;99.90;;;;;;6246862;23;20426;-91
2022/05/28 08:32:40;;;;;;;7.83;2.20;;;18.20;99.90;;;;;;6246875;23;20436;-91
2022/05/28 08:35:07;;;;;;;3.07;2.60;;;18.00;99.90;;;;;;6246352;23;20778;-92
2022/05/28 08:37:34;;;;;;;5.87;2.50;;;;;;;;;;6246772;23;20401;-91
2022/05/28 08:40:01;;;;;;;3.20;2.30;;;18.30;99.90;;;;;;6247529;23;20378;-92
2022/05/28 08:42:31;;;;;;;3.83;2.20;;;18.70;99.90;;;;;;6248626;23;20414;-91
2022/05/28 08:45:02;;;;;;;3.40;2.00;;;18.90;99.90;;;;;;6248783;23;20394;-91
2022/05/28 08:47:34;;;;;;;4.63;2.57;;;19.00;99.90;;;;;;6248657;23;20387;-92
2022/05/28 08:50:01;;;;;;;6.83;2.63;;;19.10;99.90;;;;;;6250175;23;20408;-91
2022/05/28 08:52:34;;;;;;;4.60;2.20;;;19.30;99.90;;;;;;6248350;23;20440;-91
2022/05/28 08:55:06;;;;;;;7.93;2.00;;;19.50;99.90;;;;;;6248676;23;20399;-93
2022/05/28 08:57:49;;;;;;;2.50;2.30;;;19.50;99.90;;;;;;6223771;23;20391;-91
2022/05/28 09:00:20;;;;;;;4.33;3.13;;;19.20;99.90;;;;;;6248768;23;20382;-91
2022/05/28 09:02:51;;;;;;;3.00;2.30;;;19.00;99.90;;;;;;6248844;23;20443;-91
2022/05/28 09:05:28;;;;;;;5.30;2.70;;;19.10;99.90;;;;;;6248636;23;20404;-91
2022/05/28 09:08:00;;;;;;;2.70;2.50;;;19.60;99.90;;;;;;6248697;23;20415;-91
2022/05/28 09:10:30;;;;;;;4.53;2.57;;;19.80;99.90;;;;;;6249390;23;20393;-91
2022/05/28 09:13:04;;;;;;;4.83;2.60;;;19.60;99.90;;;;;;6248591;23;20751;-91
2022/05/28 09:15:32;;;;;;;3.00;2.27;;;17.70;99.90;;;;;;6248483;23;20422;-91
2022/05/28 09:17:59;;;;;;;4.67;2.40;;;17.70;99.90;;;;;;6248392;23;20443;-91
2022/05/28 09:20:35;;;;;;;3.60;2.13;;;17.40;99.90;;;;;;6248280;23;20402;-91
2022/05/28 09:23:03;;;;;;;3.70;2.00;;;17.50;99.90;;;;;;6248736;23;20750;-91
2022/05/28 09:25:49;;;;;;;6.73;2.30;;;17.80;99.90;;;;;;6248040;23;20498;-91
2022/05/28 09:28:33;;;;;;;2.40;2.20;;;18.10;99.90;;;;;;6248354;23;20430;-91
2022/05/28 09:31:18;;;;;;;8.27;2.17;;;18.00;99.90;;;;;;6248356;23;20419;-91
2022/05/28 09:34:26;;;;;;;4.80;2.43;;;17.90;99.90;;;;;;6224935;23;20387;-91
2022/05/28 09:37:05;;;;;;;4.30;2.37;;;17.80;99.90;;;;;;6248098;23;20387;-92
2022/05/28 09:39:45;;;;;;;4.30;2.07;;;18.30;99.90;;;;;;6248535;23;20389;-91
2022/05/28 09:42:22;;;;;;;5.27;2.20;;;18.70;99.90;;;;;;6248677;23;20432;-91
2022/05/28 09:45:10;;;;;;;2.83;2.57;;;19.20;99.90;;;;;;6248314;23;20381;-92
2022/05/28 09:47:48;;;;;;;3.60;2.03;;;19.20;99.90;;;;;;6248247;23;20443;-92
2022/05/28 09:50:21;;;;;;;4.87;2.53;;;19.00;99.90;;;;;;6248655;23;20418;-91
2022/05/28 09:58:36;;;;;;;8.57;2.40;;;18.50;99.90;;;;;;6246499;23;20404;-91
2022/05/28 10:01:21;;;;;;;4.00;2.10;;;18.90;99.90;;;;;;6247968;23;20390;-91
2022/05/28 10:06:35;;;;;;;6.40;2.77;;;20.00;99.90;;;;;;6248303;23;20392;-91
2022/05/28 10:09:13;;;;;;;4.90;2.20;;;20.40;99.90;;;;;;6248040;23;20416;-91
2022/05/28 10:11:53;;;;;;;6.00;2.67;;;20.70;99.90;;;;;;6248341;23;20436;-91
2022/05/28 10:17:07;;;;;;;6.77;2.50;;;20.50;99.70;;;;;;6248432;23;20495;-91
2022/05/28 10:19:40;;;;;;;4.30;2.13;;;20.70;99.90;;;;;;6248543;23;20410;-92
2022/05/28 10:22:13;;;;;;;4.70;2.00;;;21.10;99.90;;;;;;6248428;23;20404;-91
2022/05/28 10:24:45;;;;;;;6.07;2.30;;;21.50;99.90;;;;;;6247892;23;20476;-91
2022/05/28 10:27:35;;;;;;;7.73;2.53;;;21.40;99.90;;;;;;6248852;23;20427;-91
2022/05/28 10:30:07;;;;;;;2.37;2.17;;;21.00;99.90;;;;;;6248180;23;20948;-91
2022/05/28 10:32:44;;;;;;;3.50;2.10;;;20.90;99.80;;;;;;6248020;23;20436;-92
2022/05/28 10:35:20;;;;;;;2.90;2.00;;;20.60;99.90;;;;;;6247882;23;20444;-91
2022/05/28 10:37:47;;;;;;;2.87;1.90;;;20.30;99.90;;;;;;6248077;23;20423;-91
2022/05/28 10:43:31;;;;;;;5.33;2.47;;;20.10;99.90;;;;;;6247701;23;20403;-91
2022/05/28 10:46:06;;;;;;;4.40;2.60;;;19.70;99.90;;;;;;6247699;23;20408;-91
2022/05/28 10:48:44;;;;;;;7.70;3.00;;;19.40;99.90;;;;;;6248540;23;20422;-91
2022/05/28 10:51:20;;;;;;;5.00;2.97;;;18.80;99.90;;;;;;6247955;23;20377;-91
2022/05/28 10:54:11;;;;;;;3.40;2.90;;;18.90;99.90;;;;;;6247772;23;20379;-91
2022/05/28 10:56:54;;;;;;;6.37;2.50;;;19.30;99.90;;;;;;6247830;23;20439;-91
2022/05/28 10:59:36;;;;;;;3.60;2.70;;;19.90;99.90;;;;;;6247558;23;20462;-91
2022/05/28 11:02:10;;;;;;;3.17;2.63;;;20.30;99.40;;;;;;6247136;23;20436;-91
2022/05/28 11:04:51;;;;;;;6.23;2.70;;;20.70;99.00;;;;;;6247074;23;20379;-92
2022/05/28 11:07:57;;;;;;;3.33;2.20;;;21.10;99.90;;;;;;6247277;23;20898;-91
2022/05/28 11:11:00;;;;;;;3.53;2.10;;;21.20;98.70;;;;;;6231649;23;20760;-91
2022/05/28 11:14:13;;;;;;;5.97;2.33;;;20.80;97.90;;;;;;6245693;23;20434;-91
2022/05/28 11:17:13;;;;;;;4.70;2.10;;;20.80;99.20;;;;;;6245146;23;20447;-91
2022/05/28 11:20:01;;;;;;;2.97;2.20;;;21.00;98.80;;;;;;6241827;23;20415;-92
2022/05/28 11:22:54;;;;;;;4.07;2.23;;;20.30;98.30;;;;;;6247244;23;20944;-91
2022/05/28 11:25:28;;;;;;;5.53;2.40;;;19.60;99.40;;;;;;6220153;23;20408;-93
2022/05/28 11:28:10;;;;;;;3.10;2.47;;;19.50;99.90;;;;;;6247100;23;20420;-91
2022/05/28 11:30:42;;;;;;;5.40;2.10;;;19.90;99.90;;;;;;6247361;23;20941;-92
2022/05/28 11:33:15;;;;;;;5.13;2.07;;;20.50;99.00;;;;;;6248099;23;20435;-92
2022/05/28 11:35:49;;;;;;;2.70;2.00;;;21.00;98.30;;;;;;6222552;23;20443;-91
2022/05/28 11:38:22;;;;;;;4.00;1.80;;;21.50;95.30;;;;;;6248560;23;20413;-91
2022/05/28 11:40:57;;;;;;;3.33;1.80;;;21.60;93.40;;;;;;6247014;23;20926;-91
2022/05/28 11:43:28;;;;;;;2.63;1.80;;;21.70;93.70;;;;;;6247142;23;20414;-91
2022/05/28 11:45:59;;;;;;;5.67;1.60;;;21.70;94.30;;;;;;6220775;23;20412;-91
2022/05/28 11:51:30;;;;;;;4.37;1.60;;;21.90;94.90;;;;;;6225035;23;20531;-91
2022/05/28 11:54:05;;;;;;;6.67;1.90;;;22.00;94.90;;;;;;6246632;23;20416;-92
2022/05/28 11:56:32;;;;;;;2.23;1.70;;;22.20;94.50;;;;;;6247339;23;20443;-91
2022/05/28 11:59:04;;;;;;;2.03;1.83;;;22.40;93.00;;;;;;6248345;23;20735;-91
2022/05/28 12:04:42;;;;;;;3.97;1.57;;;22.80;92.80;;;;;;5101361;27;1605618;-91
2022/05/28 12:07:13;;;;;;;4.70;1.87;;;22.90;92.80;;;;;;5133894;28;20199;-91
2022/05/28 12:09:44;;;;;;;2.50;1.40;;;23.10;93.40;;;;;;5132964;28;20429;-91
2022/05/28 12:12:20;;;;;;;1.50;1.33;;;22.70;91.50;;;;;;5121869;28;20625;-91
2022/05/28 12:15:07;;;;;;;4.63;1.30;;;22.40;91.30;;;;;;5113174;28;20441;-90
2022/05/28 12:17:35;;;;;;;2.23;1.53;;;22.10;90.50;;;;;;5112246;28;20465;-91
2022/05/28 12:20:10;;;;;;;3.03;1.17;;;22.30;88.50;;;;;;5112334;28;20507;-91
2022/05/28 12:22:39;;;;;;;1.87;1.37;;;22.50;90.20;;;;;;5112331;28;20492;-91
2022/05/28 12:25:21;;;;;;;4.03;1.40;;;22.80;90.50;;;;;;5113481;28;20458;-91
2022/05/28 12:28:08;;;;;;;3.10;1.60;;;22.90;88.30;;;;;;5094148;28;20453;-91
2022/05/28 12:30:51;;;;;;;7.77;1.80;;;22.50;90.40;;;;;;5111763;28;20537;-91
2022/05/28 12:33:25;;;;;;;4.60;1.43;;;22.00;89.70;;;;;;5111916;28;20470;-90
2022/05/28 12:36:05;;;;;;;2.23;1.47;;;21.70;91.90;;;;;;5112099;28;20462;-91
2022/05/28 12:38:54;;;;;;;2.70;1.40;;;21.60;91.80;;;;;;5111983;28;20472;-91
2022/05/28 12:41:24;;;;;;;3.97;1.90;;;22.00;91.20;;;;;;5110547;28;21004;-91
2022/05/28 12:43:58;;;;;;;1.70;1.13;;;22.40;90.60;;;;;;5111431;28;20857;-91
2022/05/28 12:46:38;;;;;;;4.77;1.73;;;22.80;91.00;;;;;;5111703;28;20452;-91
2022/05/28 12:49:09;;;;;;;5.30;1.83;;;22.80;90.20;;;;;;5111510;28;20516;-91
2022/05/28 12:51:54;;;;;;;5.67;1.60;;;22.70;86.70;;;;;;5111420;28;20961;-91
2022/05/28 12:54:26;;;;;;;3.70;1.40;;;22.80;87.40;;;;;;5112656;28;20520;-91
2022/05/28 12:57:12;;;;;;;4.20;1.57;;;22.90;82.60;;;;;;5111675;28;20914;-91
2022/05/28 12:59:41;;;;;;;3.47;1.27;;;21.90;82.40;;;;;;5111265;28;20449;-91
2022/05/28 13:02:26;;;;;;;5.33;1.40;;;21.90;83.00;;;;;;5111447;28;20485;-91
2022/05/28 13:04:59;;;;;;;1.93;1.17;;;21.60;87.00;;;;;;5111151;28;20491;-91
2022/05/28 13:07:36;;;;;;;2.10;1.50;;;21.20;87.20;;;;;;5111198;28;20425;-92
2022/05/28 13:10:07;;;;;;;2.97;1.40;;;21.10;89.80;;;;;;5111594;28;20458;-92
2022/05/28 13:12:44;;;;;;;2.20;1.30;;;21.30;90.70;;;;;;5111729;28;20481;-91
2022/05/28 13:15:37;;;;;;;4.17;1.50;;;22.10;91.30;;;;;;5102463;28;20449;-91
2022/05/28 13:18:29;;;;;;;2.83;1.40;;;22.60;87.70;;;;;;5082357;28;20453;-91
2022/05/28 13:21:10;;;;;;;3.50;1.47;;;23.00;89.40;;;;;;5094498;28;20454;-90
2022/05/28 13:24:03;;;;;;;4.20;1.57;;;23.10;89.60;;;;;;5097775;28;20481;-91
2022/05/28 13:26:47;;;;;;;2.10;1.37;;;23.30;86.60;;;;;;5098538;28;20454;-91
2022/05/28 13:29:31;;;;;;;5.43;1.50;;;23.70;88.20;;;;;;5097792;28;20451;-91
2022/05/28 13:32:06;;;;;;;3.73;1.47;;;23.70;87.80;;;;;;5097152;28;20481;-91
2022/05/28 13:34:32;;;;;;;2.40;1.50;;;23.90;86.00;;;;;;5097154;28;20453;-91
2022/05/28 13:36:59;;;;;;;1.80;1.60;;;23.50;84.80;;;;;;5096718;28;20457;-90
2022/05/28 13:39:28;;;;;;;3.10;1.73;;;23.00;86.60;;;;;;5097197;28;20454;-90
2022/05/28 13:41:57;;;;;;;2.60;1.37;;;22.80;89.50;;;;;;5097779;28;20562;-91
2022/05/28 13:44:29;;;;;;;5.93;1.60;;;22.50;88.20;;;;;;5096692;28;20528;-91
2022/05/28 13:46:59;;;;;;;4.30;1.73;;;22.30;88.80;;;;;;5096973;28;20458;-92
2022/05/28 13:49:28;;;;;;;2.83;1.57;;;22.40;88.80;;;;;;5102433;28;20457;-91
2022/05/28 13:51:59;;;;;;;2.27;1.47;;;23.10;85.20;;;;;;5096873;28;21028;-90
2022/05/28 13:54:28;;;;;;;4.67;1.73;;;23.10;85.60;;;;;;5097693;28;20457;-91
2022/05/28 13:56:57;;;;;;;3.70;1.40;;;23.30;85.40;;;;;;5097588;28;20466;-90
2022/05/28 13:59:49;;;;;;;6.13;2.10;;;23.50;85.70;;;;;;5097344;28;20422;-91
2022/05/28 14:02:20;;;;;;;7.40;1.70;;;23.70;84.50;;;;;;5097058;28;20507;-90
2022/05/28 14:04:49;;;;;;;6.03;1.30;;;24.00;82.90;;;;;;5096126;28;21017;-91
2022/05/28 14:07:30;;;;;;;2.23;1.63;;;24.00;83.40;;;;;;5096655;28;20461;-91
2022/05/28 14:09:59;;;;;;;1.60;1.30;;;24.00;80.00;;;;;;5096849;28;20446;-91
2022/05/28 14:12:32;;;;;;;3.10;1.90;;;23.80;81.20;;;;;;5096957;28;20482;-91
2022/05/28 14:15:01;;;;;;;2.50;1.10;;;23.50;82.50;;;;;;5097419;28;20446;-91
2022/05/28 14:17:31;;;;;;;1.50;1.40;;;23.10;82.50;;;;;;5097351;28;20466;-91
2022/05/28 14:20:00;;;;;;;2.63;1.80;;;22.40;83.30;;;;;;5097649;28;20449;-91
2022/05/28 14:22:33;;;;;;;2.10;1.37;;;21.80;85.30;;;;;;5098036;28;20481;-90
2022/05/28 14:25:04;;;;;;;4.23;1.47;;;21.50;85.50;;;;;;5102244;28;20475;-93
2022/05/28 14:27:32;;;;;;;3.47;1.50;;;21.70;85.70;;;;;;5096182;28;20450;-91
2022/05/28 14:30:00;;;;;;;1.97;1.40;;;22.00;83.20;;;;;;5096761;28;20443;-90
2022/05/28 14:32:31;;;;;;;3.20;1.50;;;22.10;82.50;;;;;;5095006;28;20825;-91
2022/05/28 14:34:58;;;;;;;8.23;1.80;;;22.00;83.20;;;;;;5095769;28;20446;-91
2022/05/28 14:37:27;;;;;;;4.90;1.67;;;22.10;83.70;;;;;;5099006;28;20441;-90
2022/05/28 14:42:57;;;;;;;4.87;1.40;;;21.90;84.10;;;;;;5111806;27;20554;-88
2022/05/28 14:45:26;;;;;;;3.97;1.40;;;22.00;87.10;;;;;;5113157;28;20430;-96
2022/05/28 14:47:55;;;;;;;4.60;1.80;;;22.00;87.10;;;;;;5116245;28;20443;-95
2022/05/28 14:50:29;;;;;;;3.30;1.60;;;21.80;86.50;;;;;;5115822;28;20419;-96
2022/05/28 14:52:56;;;;;;;3.80;1.57;;;21.30;86.10;;;;;;5116200;28;20443;-95
2022/05/28 14:55:32;;;;;;;5.97;1.93;;;21.00;87.90;;;;;;5115267;28;20437;-95
2022/05/28 14:58:06;;;;;;;2.10;1.90;;;20.70;87.80;;;;;;5328114;22;20471;-92
2022/05/28 15:00:36;;;;;;;4.10;1.83;;;20.30;88.50;;;;;;5094709;28;20503;-89
2022/05/28 15:03:12;;;;;;;5.97;2.40;;;20.00;89.10;;;;;;5084947;28;20502;-90
2022/05/28 15:16:07;;;;;;;3.90;1.30;;;21.10;88.60;;;;;;5135085;27;20284;-91
2022/05/28 15:18:34;;;;;;;4.63;1.70;;;21.30;82.50;;;;;;5134032;28;20460;-91
2022/05/28 15:21:02;;;;;;;5.90;1.80;;;;;;;;;;5133077;27;20453;-91
2022/05/28 15:23:30;;;;;;;9.07;1.90;;;21.00;83.60;;;;;;5134015;28;21009;-90
2022/05/28 15:25:57;;;;;;;4.53;2.10;;;21.00;85.50;;;;;;5135773;28;20509;-91
2022/05/28 15:28:24;;;;;;;3.83;1.57;;;21.10;86.50;;;;;;5133841;28;20459;-90
2022/05/28 15:30:52;;;;;;;7.20;2.20;;;21.40;87.70;;;;;;5134300;28;20445;-90
2022/05/28 15:33:24;;;;;;;7.30;2.53;;;21.30;88.10;;;;;;5134825;28;20473;-90
2022/05/28 15:38:35;;;;;;;3.47;1.83;;;20.60;87.50;;;;;;5133612;27;20838;-90
2022/05/28 15:41:04;;;;;;;11.43;2.33;;;20.30;89.00;;;;;;5133701;28;20441;-93
2022/05/28 15:43:34;;;;;;;3.90;1.97;;;20.20;88.50;;;;;;5133350;28;20532;-90
2022/05/28 15:46:01;;;;;;;4.00;1.70;;;19.90;89.00;;;;;;5134600;28;20484;-90
2022/05/28 15:48:30;;;;;;;4.87;1.73;;;19.90;89.40;;;;;;5134024;27;20449;-91
2022/05/28 15:50:58;;;;;;;3.57;1.70;;;19.50;89.90;;;;;;5133272;28;20502;-91
2022/05/28 15:53:25;;;;;;;6.17;2.10;;;19.50;89.60;;;;;;5133162;28;20459;-91
2022/05/28 15:55:53;;;;;;;4.80;2.20;;;;;;;;;;5133703;28;20480;-90
2022/05/28 15:58:24;;;;;;;5.60;1.80;;;19.50;89.40;;;;;;5134759;28;20461;-90
2022/05/28 16:00:52;;;;;;;4.80;2.10;;;19.60;89.50;;;;;;5133748;28;20410;-92
2022/05/28 16:03:19;;;;;;;6.73;1.83;;;19.70;90.10;;;;;;5133762;27;20451;-91
2022/05/28 16:05:48;;;;;;;2.57;1.60;;;19.60;90.60;;;;;;5134125;27;20498;-90
2022/05/28 16:08:39;;;;;;;5.33;1.90;;;;;;;;;;5134648;28;20460;-90
2022/05/28 16:11:12;;;;;;;6.90;2.60;;;19.40;90.60;;;;;;5135005;27;20445;-91